createdAt,value
2018-12-03T00:00:11.940Z,993.09
2018-12-03T00:01:11.938Z,993.06
2018-12-03T00:02:11.918Z,992.99
2018-12-03T00:03:11.920Z,993.00
2018-12-03T00:04:11.917Z,993.02
2018-12-03T00:05:11.930Z,992.99
2018-12-03T00:06:11.909Z,992.91
2018-12-03T00:07:11.934Z,992.95
2018-12-03T00:08:11.899Z,992.88
2018-12-03T00:09:11.900Z,992.88
2018-12-03T00:10:11.893Z,992.87
2018-12-03T00:11:11.881Z,992.83
2018-12-03T00:12:11.888Z,992.84
2018-12-03T00:13:11.911Z,992.83
2018-12-03T00:14:11.907Z,992.81
2018-12-03T00:15:11.870Z,992.83
2018-12-03T00:16:11.860Z,992.82
2018-12-03T00:17:11.861Z,992.84
2018-12-03T00:18:11.848Z,992.84
2018-12-03T00:19:11.866Z,992.82
2018-12-03T00:20:11.861Z,992.84
2018-12-03T00:21:11.862Z,992.80
2018-12-03T00:22:11.848Z,992.81
2018-12-03T00:23:11.849Z,992.84
2018-12-03T00:24:11.827Z,992.81
2018-12-03T00:25:11.899Z,992.81
2018-12-03T00:26:11.867Z,992.77
2018-12-03T00:27:11.831Z,992.75
2018-12-03T00:28:11.809Z,992.74
2018-12-03T00:29:11.816Z,992.69
2018-12-03T00:30:11.813Z,992.74
2018-12-03T00:31:11.811Z,992.71
2018-12-03T00:32:11.822Z,992.67
2018-12-03T00:33:11.806Z,992.69
2018-12-03T00:34:11.808Z,992.69
2018-12-03T00:35:11.801Z,992.70
2018-12-03T00:36:11.873Z,992.65
2018-12-03T00:37:11.780Z,992.65
2018-12-03T00:38:11.804Z,992.70
2018-12-03T00:39:11.810Z,992.70
2018-12-03T00:40:11.836Z,992.73
2018-12-03T00:41:11.807Z,992.69
2018-12-03T00:42:11.800Z,992.72
2018-12-03T00:43:11.764Z,992.70
2018-12-03T00:44:11.763Z,992.72
2018-12-03T00:45:11.821Z,992.66
2018-12-03T00:46:11.761Z,992.70
2018-12-03T00:47:11.762Z,992.76
2018-12-03T00:48:11.824Z,992.72
2018-12-03T00:49:12.728Z,992.66
2018-12-03T00:50:11.744Z,992.70
2018-12-03T00:51:11.768Z,992.71
2018-12-03T00:52:11.727Z,992.73
2018-12-03T00:53:11.736Z,992.78
2018-12-03T00:54:11.718Z,992.79
2018-12-03T00:55:11.723Z,992.88
2018-12-03T00:56:11.763Z,992.86
2018-12-03T00:57:11.727Z,992.86
2018-12-03T00:58:11.765Z,992.82
2018-12-03T00:59:11.716Z,992.82
2018-12-03T01:00:11.764Z,992.79
2018-12-03T01:01:11.746Z,992.80
2018-12-03T01:02:11.704Z,992.82
2018-12-03T01:03:11.760Z,992.80
2018-12-03T01:04:11.739Z,992.83
2018-12-03T01:05:11.686Z,992.78
2018-12-03T01:06:11.690Z,992.78
2018-12-03T01:07:11.708Z,992.79
2018-12-03T01:08:11.763Z,992.89
2018-12-03T01:09:11.673Z,992.84
2018-12-03T01:10:11.661Z,992.98
2018-12-03T01:11:11.645Z,992.94
2018-12-03T01:12:11.635Z,992.84
2018-12-03T01:13:11.699Z,992.75
2018-12-03T01:14:11.718Z,992.63
2018-12-03T01:15:11.635Z,992.64
2018-12-03T01:16:11.664Z,992.68
2018-12-03T01:17:11.658Z,992.69
2018-12-03T01:18:11.612Z,992.70
2018-12-03T01:19:11.620Z,992.59
2018-12-03T01:20:11.661Z,992.66
2018-12-03T01:21:11.645Z,992.71
2018-12-03T01:22:11.637Z,992.70
2018-12-03T01:23:11.626Z,992.77
2018-12-03T01:24:11.609Z,992.80
2018-12-03T01:25:11.606Z,992.83
2018-12-03T01:26:11.589Z,992.86
2018-12-03T01:27:11.680Z,992.86
2018-12-03T01:28:11.637Z,992.91
2018-12-03T01:29:11.755Z,992.86
2018-12-03T01:30:11.607Z,992.89
2018-12-03T01:31:11.625Z,992.87
2018-12-03T01:32:11.621Z,992.86
2018-12-03T01:33:11.593Z,992.81
2018-12-03T01:34:11.564Z,992.78
2018-12-03T01:35:11.546Z,992.82
2018-12-03T01:36:11.573Z,992.90
2018-12-03T01:37:11.562Z,992.84
2018-12-03T01:38:11.530Z,992.81
2018-12-03T01:39:11.532Z,992.87
2018-12-03T01:40:11.536Z,992.82
2018-12-03T01:41:11.538Z,992.76
2018-12-03T01:42:11.539Z,992.81
2018-12-03T01:43:11.513Z,992.77
2018-12-03T01:44:11.508Z,992.82
2018-12-03T01:45:11.513Z,992.76
2018-12-03T01:46:11.511Z,992.74
2018-12-03T01:47:11.512Z,992.73
2018-12-03T01:48:11.500Z,992.80
2018-12-03T01:49:11.526Z,992.76
2018-12-03T01:50:11.518Z,992.78
2018-12-03T01:51:11.501Z,992.80
2018-12-03T01:52:11.479Z,992.79
2018-12-03T01:53:11.491Z,992.83
2018-12-03T01:54:11.489Z,992.82
2018-12-03T01:55:11.489Z,992.88
2018-12-03T01:56:11.492Z,992.89
2018-12-03T01:57:11.480Z,992.84
2018-12-03T01:58:11.524Z,992.87
2018-12-03T01:59:11.490Z,992.84
2018-12-03T02:00:11.470Z,992.84
2018-12-03T02:01:11.457Z,992.88
2018-12-03T02:02:11.435Z,992.83
2018-12-03T02:03:11.464Z,992.81
2018-12-03T02:04:11.450Z,992.70
2018-12-03T02:05:11.431Z,992.83
2018-12-03T02:06:11.430Z,992.77
2018-12-03T02:07:11.565Z,992.83
2018-12-03T02:08:11.447Z,992.83
2018-12-03T02:09:11.441Z,992.83
2018-12-03T02:10:11.441Z,992.77
2018-12-03T02:11:11.407Z,992.84
2018-12-03T02:12:11.393Z,992.83
2018-12-03T02:13:11.408Z,992.86
2018-12-03T02:14:11.402Z,992.85
2018-12-03T02:15:11.415Z,992.82
2018-12-03T02:16:11.398Z,992.83
2018-12-03T02:17:11.388Z,992.86
2018-12-03T02:18:11.373Z,992.85
2018-12-03T02:19:11.378Z,992.73
2018-12-03T02:20:11.389Z,992.71
2018-12-03T02:21:11.369Z,992.73
2018-12-03T02:22:11.377Z,992.68
2018-12-03T02:23:11.360Z,992.76
2018-12-03T02:24:11.398Z,992.72
2018-12-03T02:25:11.348Z,992.70
2018-12-03T02:26:11.373Z,992.65
2018-12-03T02:27:11.353Z,992.67
2018-12-03T02:28:11.338Z,992.62
2018-12-03T02:29:11.355Z,992.60
2018-12-03T02:30:11.334Z,992.53
2018-12-03T02:31:11.336Z,992.53
2018-12-03T02:32:11.330Z,992.51
2018-12-03T02:33:11.310Z,992.55
2018-12-03T02:34:11.318Z,992.59
2018-12-03T02:35:11.349Z,992.54
2018-12-03T02:36:11.382Z,992.52
2018-12-03T02:37:11.300Z,992.54
2018-12-03T02:38:11.303Z,992.50
2018-12-03T02:39:11.293Z,992.52
2018-12-03T02:40:11.316Z,992.57
2018-12-03T02:41:11.278Z,992.60
2018-12-03T02:42:11.296Z,992.60
2018-12-03T02:43:11.298Z,992.53
2018-12-03T02:44:11.269Z,992.58
2018-12-03T02:45:11.295Z,992.54
2018-12-03T02:46:11.268Z,992.49
2018-12-03T02:47:19.419Z,992.45
2018-12-03T02:48:12.689Z,992.51
2018-12-03T02:49:11.266Z,992.48
2018-12-03T02:50:11.417Z,992.46
2018-12-03T02:51:13.710Z,992.45
2018-12-03T02:52:11.395Z,992.43
2018-12-03T02:53:11.256Z,992.44
2018-12-03T02:54:11.234Z,992.41
2018-12-03T02:55:11.351Z,992.36
2018-12-03T02:56:13.733Z,992.37
2018-12-03T02:57:13.751Z,992.31
2018-12-03T02:58:12.791Z,992.30
2018-12-03T02:59:11.226Z,992.27
2018-12-03T03:00:12.924Z,992.26
2018-12-03T03:01:13.181Z,992.26
2018-12-03T03:02:11.323Z,992.22
2018-12-03T03:03:14.162Z,992.29
2018-12-03T03:04:13.937Z,992.22
2018-12-03T03:05:30.151Z,992.29
2018-12-03T03:06:13.510Z,992.27
2018-12-03T03:07:11.207Z,992.27
2018-12-03T03:08:12.742Z,992.34
2018-12-03T03:09:13.405Z,992.28
2018-12-03T03:10:13.268Z,992.36
2018-12-03T03:11:13.711Z,992.34
2018-12-03T03:12:11.202Z,992.32
2018-12-03T03:13:14.012Z,992.39
2018-12-03T03:14:13.270Z,992.44
2018-12-03T03:15:13.966Z,992.41
2018-12-03T03:16:12.753Z,992.48
2018-12-03T03:17:11.278Z,992.38
2018-12-03T03:18:14.156Z,992.37
2018-12-03T03:19:11.158Z,992.38
2018-12-03T03:20:13.781Z,992.37
2018-12-03T03:21:11.143Z,992.35
2018-12-03T03:22:11.194Z,992.28
2018-12-03T03:23:13.908Z,992.29
2018-12-03T03:24:11.232Z,992.25
2018-12-03T03:25:13.808Z,992.21
2018-12-03T03:26:11.122Z,992.23
2018-12-03T03:27:11.115Z,992.24
2018-12-03T03:28:13.147Z,992.26
2018-12-03T03:29:11.932Z,992.31
2018-12-03T03:30:13.713Z,992.30
2018-12-03T03:31:11.967Z,992.25
2018-12-03T03:32:11.228Z,992.30
2018-12-03T03:33:11.254Z,992.26
2018-12-03T03:34:12.167Z,992.23
2018-12-03T03:35:11.363Z,992.26
2018-12-03T03:36:11.161Z,992.27
2018-12-03T03:37:11.120Z,992.31
2018-12-03T03:38:11.092Z,992.34
2018-12-03T03:39:14.398Z,992.37
2018-12-03T03:40:11.091Z,992.37
2018-12-03T03:41:11.649Z,992.35
2018-12-03T03:42:11.071Z,992.41
2018-12-03T03:43:11.045Z,992.47
2018-12-03T03:44:11.117Z,992.52
2018-12-03T03:45:11.088Z,992.49
2018-12-03T03:46:11.096Z,992.49
2018-12-03T03:47:11.934Z,992.50
2018-12-03T03:48:11.052Z,992.48
2018-12-03T03:49:12.733Z,992.56
2018-12-03T03:50:13.197Z,992.60
2018-12-03T03:51:12.817Z,992.63
2018-12-03T03:52:11.057Z,992.58
2018-12-03T03:53:12.740Z,992.54
2018-12-03T03:54:13.038Z,992.58
2018-12-03T03:55:12.710Z,992.59
2018-12-03T03:56:12.159Z,992.61
2018-12-03T03:57:11.126Z,992.64
2018-12-03T03:58:12.747Z,992.61
2018-12-03T03:59:12.684Z,992.60
2018-12-03T04:00:11.021Z,992.64
2018-12-03T04:01:12.745Z,992.58
2018-12-03T04:02:12.752Z,992.59
2018-12-03T04:03:12.742Z,992.61
2018-12-03T04:04:12.736Z,992.62
2018-12-03T04:05:12.734Z,992.58
2018-12-03T04:06:12.744Z,992.55
2018-12-03T04:07:12.692Z,992.51
2018-12-03T04:08:13.203Z,992.48
2018-12-03T04:09:13.672Z,992.44
2018-12-03T04:10:13.200Z,992.43
2018-12-03T04:11:12.775Z,992.31
2018-12-03T04:12:12.541Z,992.07
2018-12-03T04:13:12.721Z,992.09
2018-12-03T04:14:13.244Z,992.45
2018-12-03T04:15:13.255Z,992.44
2018-12-03T04:16:12.205Z,992.43
2018-12-03T04:17:12.959Z,992.39
2018-12-03T04:18:13.249Z,992.24
2018-12-03T04:19:13.164Z,992.28
2018-12-03T04:20:13.210Z,992.25
2018-12-03T04:21:13.154Z,992.35
2018-12-03T04:22:13.264Z,992.37
2018-12-03T04:23:13.242Z,992.36
2018-12-03T04:24:13.277Z,992.35
2018-12-03T04:25:13.266Z,992.36
2018-12-03T04:26:13.247Z,992.27
2018-12-03T04:27:13.206Z,992.32
2018-12-03T04:28:13.153Z,992.30
2018-12-03T04:29:12.575Z,992.39
2018-12-03T04:30:12.893Z,992.36
2018-12-03T04:31:12.945Z,992.39
2018-12-03T04:32:12.826Z,992.37
2018-12-03T04:33:13.140Z,992.39
2018-12-03T04:34:12.847Z,992.40
2018-12-03T04:35:12.897Z,992.45
2018-12-03T04:36:13.295Z,992.56
2018-12-03T04:37:12.862Z,992.48
2018-12-03T04:38:13.235Z,992.55
2018-12-03T04:39:12.893Z,992.48
2018-12-03T04:40:13.289Z,992.49
2018-12-03T04:42:13.234Z,992.43
2018-12-03T04:43:13.234Z,992.42
2018-12-03T04:44:12.881Z,992.43
2018-12-03T04:45:13.235Z,992.37
2018-12-03T04:46:13.283Z,992.34
2018-12-03T04:47:13.163Z,992.36
2018-12-03T04:48:13.310Z,992.43
2018-12-03T04:49:13.238Z,992.42
2018-12-03T04:50:12.903Z,992.53
2018-12-03T04:51:13.183Z,992.56
2018-12-03T04:52:12.819Z,992.49
2018-12-03T04:53:13.142Z,992.47
2018-12-03T04:54:13.306Z,992.51
2018-12-03T04:55:13.252Z,992.51
2018-12-03T04:56:12.829Z,992.35
2018-12-03T04:57:12.879Z,992.40
2018-12-03T04:58:13.217Z,992.40
2018-12-03T04:59:12.881Z,992.42
2018-12-03T05:00:19.359Z,992.39
2018-12-03T05:01:12.690Z,992.44
2018-12-03T05:02:14.463Z,992.47
2018-12-03T05:03:12.760Z,992.49
2018-12-03T05:04:14.785Z,992.49
2018-12-03T05:05:12.500Z,992.51
2018-12-03T05:06:14.727Z,992.52
2018-12-03T05:07:12.975Z,992.53
2018-12-03T05:08:13.384Z,992.53
2018-12-03T05:09:13.404Z,992.53
2018-12-03T05:10:13.505Z,992.49
2018-12-03T05:11:12.452Z,992.53
2018-12-03T05:12:12.679Z,992.54
2018-12-03T05:13:12.472Z,992.61
2018-12-03T05:14:12.490Z,992.62
2018-12-03T05:15:12.492Z,992.55
2018-12-03T05:16:12.512Z,992.59
2018-12-03T05:17:12.368Z,992.59
2018-12-03T05:18:12.818Z,992.64
2018-12-03T05:19:14.798Z,992.58
2018-12-03T05:20:12.423Z,992.63
2018-12-03T05:21:12.977Z,992.64
2018-12-03T05:22:13.310Z,992.61
2018-12-03T05:23:13.223Z,992.67
2018-12-03T05:24:12.591Z,992.66
2018-12-03T05:25:12.708Z,992.61
2018-12-03T05:26:12.609Z,992.65
2018-12-03T05:27:12.626Z,992.63
2018-12-03T05:28:12.676Z,992.64
2018-12-03T05:29:12.727Z,992.65
2018-12-03T05:30:12.964Z,992.65
2018-12-03T05:31:13.693Z,992.66
2018-12-03T05:32:12.658Z,992.73
2018-12-03T05:33:12.667Z,992.72
2018-12-03T05:34:13.177Z,992.74
2018-12-03T05:35:13.448Z,992.71
2018-12-03T05:36:12.202Z,992.70
2018-12-03T05:37:12.541Z,992.78
2018-12-03T05:38:12.634Z,992.72
2018-12-03T05:39:12.455Z,992.73
2018-12-03T05:40:12.518Z,992.69
2018-12-03T05:41:12.563Z,992.76
2018-12-03T05:42:12.558Z,992.73
2018-12-03T05:43:12.645Z,992.70
2018-12-03T05:44:18.497Z,992.71
2018-12-03T05:45:12.487Z,992.70
2018-12-03T05:46:12.559Z,992.72
2018-12-03T05:47:12.228Z,992.72
2018-12-03T05:48:12.694Z,992.69
2018-12-03T05:49:12.444Z,992.73
2018-12-03T05:50:12.642Z,992.77
2018-12-03T05:51:12.574Z,992.79
2018-12-03T05:52:12.618Z,992.74
2018-12-03T05:53:12.568Z,992.72
2018-12-03T05:54:12.623Z,992.73
2018-12-03T05:55:12.528Z,992.74
2018-12-03T05:56:12.458Z,992.80
2018-12-03T05:57:12.484Z,992.76
2018-12-03T05:58:12.426Z,992.78
2018-12-03T05:59:12.624Z,992.76
2018-12-03T06:00:12.517Z,992.73
2018-12-03T06:01:12.537Z,992.78
2018-12-03T06:02:12.571Z,992.80
2018-12-03T06:03:12.537Z,992.77
2018-12-03T06:04:12.488Z,992.76
2018-12-03T06:05:12.501Z,992.79
2018-12-03T06:06:12.508Z,992.88
2018-12-03T06:07:12.552Z,992.83
2018-12-03T06:08:12.448Z,992.84
2018-12-03T06:09:12.564Z,992.90
2018-12-03T06:10:12.507Z,992.92
2018-12-03T06:11:12.627Z,992.89
2018-12-03T06:12:12.408Z,992.92
2018-12-03T06:13:12.763Z,992.81
2018-12-03T06:14:13.108Z,992.86
2018-12-03T06:15:12.065Z,992.81
2018-12-03T06:16:15.239Z,992.82
2018-12-03T06:17:12.236Z,992.87
2018-12-03T06:18:12.565Z,992.83
2018-12-03T06:19:12.608Z,992.80
2018-12-03T06:20:12.804Z,992.85
2018-12-03T06:21:13.257Z,992.93
2018-12-03T06:22:12.734Z,992.94
2018-12-03T06:23:12.521Z,992.95
2018-12-03T06:24:32.573Z,993.01
2018-12-03T06:25:12.355Z,993.03
2018-12-03T06:26:12.444Z,993.05
2018-12-03T06:27:47.896Z,993.04
2018-12-03T06:28:11.272Z,993.05
2018-12-03T06:29:12.753Z,993.01
2018-12-03T06:30:19.196Z,993.07
2018-12-03T06:31:12.697Z,993.00
2018-12-03T06:32:13.041Z,993.03
2018-12-03T06:33:17.819Z,993.01
2018-12-03T06:34:12.747Z,993.07
2018-12-03T06:35:39.509Z,993.01
2018-12-03T06:36:18.881Z,993.01
2018-12-03T06:37:12.657Z,993.01
2018-12-03T06:38:15.475Z,992.98
2018-12-03T06:39:12.295Z,992.97
2018-12-03T06:40:15.754Z,992.96
2018-12-03T06:41:11.772Z,993.04
2018-12-03T06:42:11.811Z,993.03
2018-12-03T06:43:11.497Z,993.00
2018-12-03T06:44:19.771Z,993.01
2018-12-03T06:45:19.260Z,993.01
2018-12-03T06:46:25.323Z,993.05
2018-12-03T06:47:12.416Z,993.10
2018-12-03T06:48:11.775Z,993.08
2018-12-03T06:49:11.486Z,993.06
2018-12-03T06:50:12.438Z,993.03
2018-12-03T06:51:12.731Z,993.10
2018-12-03T06:52:12.231Z,993.09
2018-12-03T06:53:12.220Z,993.04
2018-12-03T06:54:12.420Z,993.00
2018-12-03T06:55:12.191Z,993.10
2018-12-03T06:56:14.320Z,993.08
2018-12-03T06:58:45.716Z,993.08
2018-12-03T06:59:45.815Z,993.10
2018-12-03T07:01:40.348Z,993.05
2018-12-03T07:02:40.519Z,993.09
2018-12-03T07:04:35.270Z,993.05
2018-12-03T07:05:35.200Z,993.06
2018-12-03T07:06:34.832Z,993.01
2018-12-03T07:07:35.258Z,993.05
2018-12-03T07:08:35.093Z,993.08
2018-12-03T07:09:34.521Z,993.06
2018-12-03T07:10:34.805Z,993.03
2018-12-03T07:11:35.523Z,993.05
2018-12-03T07:12:34.809Z,993.01
2018-12-03T07:13:35.225Z,993.03
2018-12-03T07:14:37.722Z,993.04
2018-12-03T07:15:35.155Z,993.13
2018-12-03T07:16:35.226Z,993.11
2018-12-03T07:17:35.162Z,993.15
2018-12-03T07:19:35.151Z,993.20
2018-12-03T07:20:35.729Z,993.19
2018-12-03T07:21:36.024Z,993.27
2018-12-03T07:22:35.191Z,993.31
2018-12-03T07:23:35.727Z,993.30
2018-12-03T07:24:35.225Z,993.33
2018-12-03T07:25:34.572Z,993.33
2018-12-03T07:26:35.130Z,993.29
2018-12-03T07:27:34.910Z,993.32
2018-12-03T07:28:41.054Z,993.33
2018-12-03T07:29:35.278Z,993.30
2018-12-03T07:30:35.673Z,993.42
2018-12-03T07:31:35.231Z,993.42
2018-12-03T07:32:34.370Z,993.36
2018-12-03T07:33:34.879Z,993.41
2018-12-03T07:34:34.909Z,993.44
2018-12-03T07:35:34.930Z,993.33
2018-12-03T07:36:34.861Z,993.37
2018-12-03T07:37:34.908Z,993.37
2018-12-03T07:38:34.898Z,993.35
2018-12-03T07:39:34.454Z,993.35
2018-12-03T07:40:35.041Z,993.44
2018-12-03T07:41:34.882Z,993.41
2018-12-03T07:42:35.096Z,993.36
2018-12-03T07:43:34.953Z,993.36
2018-12-03T07:44:35.184Z,993.52
2018-12-03T07:45:35.372Z,993.59
2018-12-03T07:46:35.193Z,993.62
2018-12-03T07:47:33.910Z,993.50
2018-12-03T07:48:34.555Z,993.66
2018-12-03T07:49:36.250Z,993.59
2018-12-03T07:50:34.356Z,993.54
2018-12-03T07:51:33.993Z,993.49
2018-12-03T07:52:32.989Z,993.50
2018-12-03T07:53:34.327Z,993.54
2018-12-03T07:54:32.901Z,993.54
2018-12-03T07:55:34.370Z,993.60
2018-12-03T07:56:35.222Z,993.57
2018-12-03T07:57:32.768Z,993.54
2018-12-03T07:58:36.185Z,993.55
2018-12-03T07:59:32.776Z,993.56
2018-12-03T08:00:34.753Z,993.61
2018-12-03T08:01:34.351Z,993.56
2018-12-03T08:02:32.874Z,993.62
2018-12-03T08:03:35.557Z,993.65
2018-12-03T08:04:35.234Z,993.67
2018-12-03T08:05:34.718Z,993.67
2018-12-03T08:06:34.298Z,993.69
2018-12-03T08:07:36.282Z,993.69
2018-12-03T08:08:34.372Z,993.74
2018-12-03T08:09:36.968Z,993.69
2018-12-03T08:10:37.657Z,993.69
2018-12-03T08:11:34.724Z,993.70
2018-12-03T08:12:34.683Z,993.71
2018-12-03T08:13:34.307Z,993.70
2018-12-03T08:14:35.048Z,993.75
2018-12-03T08:15:32.712Z,993.69
2018-12-03T08:16:34.307Z,993.64
2018-12-03T08:17:34.530Z,993.67
2018-12-03T08:18:33.776Z,993.67
2018-12-03T08:19:34.734Z,993.74
2018-12-03T08:20:32.661Z,993.72
2018-12-03T08:21:34.296Z,993.71
2018-12-03T08:22:34.370Z,993.64
2018-12-03T08:23:32.678Z,993.66
2018-12-03T08:24:34.644Z,993.73
2018-12-03T08:25:41.199Z,993.70
2018-12-03T08:26:34.742Z,993.67
2018-12-03T08:27:33.879Z,993.65
2018-12-03T08:28:34.285Z,993.66
2018-12-03T08:29:34.233Z,993.74
2018-12-03T08:30:34.238Z,993.68
2018-12-03T08:31:34.261Z,993.70
2018-12-03T08:32:41.536Z,993.75
2018-12-03T08:33:35.246Z,993.76
2018-12-03T08:34:35.588Z,993.87
2018-12-03T08:35:37.267Z,993.79
2018-12-03T08:36:34.710Z,993.83
2018-12-03T08:37:34.631Z,993.72
2018-12-03T08:38:34.807Z,993.72
2018-12-03T08:39:33.918Z,993.73
2018-12-03T08:40:32.660Z,993.67
2018-12-03T08:41:32.698Z,993.61
2018-12-03T08:42:34.708Z,993.67
2018-12-03T08:43:34.314Z,993.70
2018-12-03T08:44:34.194Z,993.68
2018-12-03T08:45:32.549Z,993.69
2018-12-03T08:46:34.242Z,993.75
2018-12-03T08:47:32.548Z,993.71
2018-12-03T08:48:32.648Z,993.71
2018-12-03T08:49:32.546Z,993.77
2018-12-03T08:50:32.747Z,993.74
2018-12-03T08:51:32.625Z,993.81
2018-12-03T08:52:34.877Z,993.80
2018-12-03T08:53:32.542Z,993.86
2018-12-03T08:54:32.528Z,993.85
2018-12-03T08:55:34.617Z,993.87
2018-12-03T08:56:36.267Z,993.87
2018-12-03T08:57:34.753Z,993.84
2018-12-03T08:58:34.738Z,993.86
2018-12-03T08:59:34.193Z,993.90
2018-12-03T09:00:35.061Z,993.92
2018-12-03T09:01:34.485Z,993.84
2018-12-03T09:02:34.169Z,993.97
2018-12-03T09:03:32.718Z,993.93
2018-12-03T09:04:35.097Z,994.00
2018-12-03T09:05:32.609Z,993.99
2018-12-03T09:06:34.759Z,994.01
2018-12-03T09:07:34.743Z,994.00
2018-12-03T09:08:37.273Z,993.98
2018-12-03T09:09:33.724Z,994.01
2018-12-03T09:10:32.574Z,994.02
2018-12-03T09:11:35.042Z,993.95
2018-12-03T09:12:34.812Z,993.99
2018-12-03T09:13:32.474Z,993.97
2018-12-03T09:14:32.571Z,993.96
2018-12-03T09:15:34.038Z,994.01
2018-12-03T09:16:36.605Z,994.00
2018-12-03T09:17:34.264Z,994.00
2018-12-03T09:18:33.770Z,993.97
2018-12-03T09:19:32.525Z,993.99
2018-12-03T09:20:34.764Z,993.98
2018-12-03T09:21:34.280Z,993.96
2018-12-03T09:22:33.892Z,994.00
2018-12-03T09:23:32.519Z,993.95
2018-12-03T09:24:35.052Z,993.89
2018-12-03T09:25:36.011Z,993.88
2018-12-03T09:26:34.271Z,993.91
2018-12-03T09:27:34.562Z,993.86
2018-12-03T09:28:34.764Z,993.97
2018-12-03T09:29:34.465Z,993.97
2018-12-03T09:30:34.753Z,993.96
2018-12-03T09:31:34.763Z,993.95
2018-12-03T09:32:34.715Z,993.97
2018-12-03T09:33:57.796Z,993.96
2018-12-03T09:34:49.348Z,993.99
2018-12-03T09:35:34.927Z,993.92
2018-12-03T09:36:33.800Z,993.96
2018-12-03T09:37:33.781Z,994.05
2018-12-03T09:38:34.977Z,994.00
2018-12-03T09:39:49.753Z,993.99
2018-12-03T09:40:34.041Z,994.01
2018-12-03T09:41:35.238Z,994.03
2018-12-03T09:42:35.227Z,994.07
2018-12-03T09:43:35.258Z,993.98
2018-12-03T09:44:34.495Z,994.06
2018-12-03T09:45:34.817Z,993.94
2018-12-03T09:46:36.262Z,994.05
2018-12-03T09:47:35.263Z,994.03
2018-12-03T09:48:36.911Z,994.08
2018-12-03T09:49:35.275Z,994.09
2018-12-03T09:50:34.841Z,994.05
2018-12-03T09:51:34.612Z,994.07
2018-12-03T09:52:34.418Z,994.03
2018-12-03T09:53:34.759Z,994.06
2018-12-03T09:54:38.403Z,994.07
2018-12-03T09:55:36.763Z,994.04
2018-12-03T09:56:34.283Z,994.03
2018-12-03T09:57:36.434Z,994.01
2018-12-03T09:58:34.346Z,994.07
2018-12-03T09:59:34.744Z,994.03
2018-12-03T10:00:34.671Z,994.08
2018-12-03T10:01:37.046Z,994.05
2018-12-03T10:02:34.762Z,994.10
2018-12-03T10:03:34.690Z,994.09
2018-12-03T10:04:34.732Z,994.09
2018-12-03T10:05:35.088Z,994.11
2018-12-03T10:06:34.816Z,994.06
2018-12-03T10:07:35.016Z,994.11
2018-12-03T10:08:40.055Z,994.06
2018-12-03T10:09:33.887Z,994.08
2018-12-03T10:10:40.635Z,994.07
2018-12-03T10:11:34.660Z,994.01
2018-12-03T10:12:34.989Z,994.05
2018-12-03T10:13:35.059Z,994.02
2018-12-03T10:14:40.454Z,994.05
2018-12-03T10:15:36.351Z,994.02
2018-12-03T10:16:35.217Z,994.04
2018-12-03T10:17:34.146Z,994.05
2018-12-03T10:18:36.764Z,993.99
2018-12-03T10:19:36.765Z,993.98
2018-12-03T10:20:34.163Z,993.96
2018-12-03T10:21:34.707Z,994.04
2018-12-03T10:22:34.730Z,994.06
2018-12-03T10:23:34.685Z,994.00
2018-12-03T10:24:34.725Z,993.99
2018-12-03T10:25:35.293Z,994.02
2018-12-03T10:26:34.249Z,994.00
2018-12-03T10:27:34.695Z,994.02
2018-12-03T10:28:36.479Z,993.97
2018-12-03T10:29:34.222Z,993.95
2018-12-03T10:30:34.281Z,993.93
2018-12-03T10:31:34.452Z,993.93
2018-12-03T10:32:34.288Z,994.01
2018-12-03T10:33:34.760Z,993.93
2018-12-03T10:34:36.276Z,993.95
2018-12-03T10:35:34.306Z,993.85
2018-12-03T10:36:36.323Z,993.94
2018-12-03T10:37:34.374Z,993.97
2018-12-03T10:38:34.252Z,993.95
2018-12-03T10:39:34.057Z,993.97
2018-12-03T10:40:34.802Z,993.99
2018-12-03T10:41:34.345Z,993.89
2018-12-03T10:42:34.931Z,993.96
2018-12-03T10:43:34.742Z,993.92
2018-12-03T10:44:33.984Z,993.83
2018-12-03T10:45:34.213Z,993.84
2018-12-03T10:46:34.802Z,993.92
2018-12-03T10:47:34.377Z,993.89
2018-12-03T10:48:36.375Z,993.90
2018-12-03T10:49:36.360Z,993.87
2018-12-03T10:50:33.813Z,993.86
2018-12-03T10:51:34.351Z,993.80
2018-12-03T10:52:34.569Z,993.81
2018-12-03T10:53:34.757Z,993.80
2018-12-03T10:54:34.786Z,993.82
2018-12-03T10:55:34.779Z,993.81
2018-12-03T10:56:34.786Z,993.77
2018-12-03T10:57:34.614Z,993.76
2018-12-03T10:58:34.493Z,993.79
2018-12-03T10:59:34.659Z,993.75
2018-12-03T11:00:34.952Z,993.76
2018-12-03T11:01:34.010Z,993.78
2018-12-03T11:02:34.087Z,993.78
2018-12-03T11:03:35.080Z,993.84
2018-12-03T11:04:34.052Z,993.80
2018-12-03T11:05:34.811Z,993.87
2018-12-03T11:06:34.773Z,993.80
2018-12-03T11:07:34.755Z,993.77
2018-12-03T11:08:34.384Z,993.83
2018-12-03T11:09:36.344Z,993.80
2018-12-03T11:10:34.332Z,993.76
2018-12-03T11:11:33.802Z,993.72
2018-12-03T11:12:34.352Z,993.76
2018-12-03T11:13:33.787Z,993.69
2018-12-03T11:14:34.050Z,993.63
2018-12-03T11:15:33.981Z,993.67
2018-12-03T11:16:34.773Z,993.63
2018-12-03T11:17:34.238Z,993.71
2018-12-03T11:18:34.139Z,993.71
2018-12-03T11:19:34.421Z,993.64
2018-12-03T11:20:34.165Z,993.70
2018-12-03T11:21:34.769Z,993.74
2018-12-03T11:22:34.303Z,993.60
2018-12-03T11:23:34.570Z,993.60
2018-12-03T11:24:34.174Z,993.64
2018-12-03T11:25:34.793Z,993.58
2018-12-03T11:26:34.392Z,993.64
2018-12-03T11:27:34.403Z,993.64
2018-12-03T11:28:34.354Z,993.58
2018-12-03T11:29:36.354Z,993.60
2018-12-03T11:30:34.061Z,993.61
2018-12-03T11:31:34.685Z,993.62
2018-12-03T11:32:34.734Z,993.57
2018-12-03T11:33:34.278Z,993.61
2018-12-03T11:34:34.091Z,993.50
2018-12-03T11:35:34.383Z,993.58
2018-12-03T11:36:34.270Z,993.57
2018-12-03T11:37:34.031Z,993.58
2018-12-03T11:38:34.891Z,993.53
2018-12-03T11:39:34.208Z,993.55
2018-12-03T11:40:35.135Z,993.54
2018-12-03T11:41:34.180Z,993.51
2018-12-03T11:42:34.121Z,993.48
2018-12-03T11:43:33.950Z,993.51
2018-12-03T11:44:34.222Z,993.54
2018-12-03T11:45:34.088Z,993.51
2018-12-03T11:46:33.939Z,993.63
2018-12-03T11:47:34.328Z,993.57
2018-12-03T11:48:34.223Z,993.56
2018-12-03T11:49:34.283Z,993.54
2018-12-03T11:50:34.772Z,993.55
2018-12-03T11:51:33.859Z,993.50
2018-12-03T11:52:34.735Z,993.48
2018-12-03T11:53:34.179Z,993.38
2018-12-03T11:54:34.342Z,993.47
2018-12-03T11:55:34.277Z,993.49
2018-12-03T11:56:34.320Z,993.48
2018-12-03T11:57:34.843Z,993.47
2018-12-03T11:58:34.409Z,993.45
2018-12-03T11:59:32.064Z,993.41
2018-12-03T12:00:34.831Z,993.38
2018-12-03T12:01:34.277Z,993.40
2018-12-03T12:02:34.381Z,993.43
2018-12-03T12:03:33.615Z,993.44
2018-12-03T12:04:40.556Z,993.40
2018-12-03T12:05:34.580Z,993.40
2018-12-03T12:06:34.259Z,993.36
2018-12-03T12:07:34.129Z,993.37
2018-12-03T12:08:34.523Z,993.37
2018-12-03T12:09:34.250Z,993.50
2018-12-03T12:10:34.759Z,993.43
2018-12-03T12:11:33.989Z,993.37
2018-12-03T12:12:34.733Z,993.32
2018-12-03T12:13:34.274Z,993.28
2018-12-03T12:14:34.108Z,993.28
2018-12-03T12:15:34.082Z,993.30
2018-12-03T12:16:33.447Z,993.21
2018-12-03T12:17:34.404Z,993.31
2018-12-03T12:18:34.232Z,993.27
2018-12-03T12:19:34.263Z,993.25
2018-12-03T12:20:39.968Z,993.19
2018-12-03T12:21:33.986Z,993.22
2018-12-03T12:22:33.721Z,993.19
2018-12-03T12:23:33.738Z,993.23
2018-12-03T12:24:33.881Z,993.25
2018-12-03T12:25:35.753Z,993.16
2018-12-03T12:26:36.131Z,993.20
2018-12-03T12:27:35.839Z,993.19
2018-12-03T12:28:38.048Z,993.21
2018-12-03T12:29:39.921Z,993.22
2018-12-03T12:30:33.661Z,993.23
2018-12-03T12:31:33.507Z,993.24
2018-12-03T12:32:33.657Z,993.24
2018-12-03T12:33:33.743Z,993.22